Time;durP1;ratioP1;P1;durP2;ratioP2;P2;SDS_P1;SDS_P2;PMS_P1;PMS_P2;Temp;Humidity;BMP_temperature;BMP_pressure;BME280_temperature;BME280_humidity;BME280_pressure;Samples;Min_cycle;Max_cycle;Signal;HPM_P1;HPM_P2
2021/01/07 00:02:00;;;;;;;;;;;-0.50;99.90;;;;;;5017457;28;19926;-76
2021/01/07 00:04:28;;;;;;;;;;;-0.50;99.90;;;;;;5017456;28;20401;-76
2021/01/07 00:06:55;;;;;;;;;;;-0.60;99.90;;;;;;5017530;28;19925;-76
2021/01/07 00:09:22;;;;;;;;;;;-0.60;99.90;;;;;;5017331;28;20004;-76
2021/01/07 00:11:51;;;;;;;;;;;-0.60;99.90;;;;;;5017378;28;19925;-75
2021/01/07 00:14:18;;;;;;;;;;;-0.60;99.90;;;;;;5022975;28;19979;-76
2021/01/07 00:16:44;;;;;;;;;;;-0.70;99.90;;;;;;5020271;28;19926;-76
2021/01/07 00:19:11;;;;;;;;;;;-0.70;99.90;;;;;;5016500;28;19926;-76
2021/01/07 00:21:38;;;;;;;;;;;-0.70;99.90;;;;;;5016965;28;20357;-76
2021/01/07 00:24:05;;;;;;;;;;;-0.70;99.90;;;;;;5017844;28;20016;-76
2021/01/07 00:26:31;;;;;;;;;;;-0.70;99.90;;;;;;5017239;28;19968;-76
2021/01/07 00:28:58;;;;;;;;;;;-0.70;99.90;;;;;;5017330;28;19936;-76
2021/01/07 00:31:24;;;;;;;;;;;-0.70;99.90;;;;;;5016849;28;19926;-76
2021/01/07 00:33:51;;;;;;;;;;;-0.70;99.90;;;;;;5017432;28;19976;-77
2021/01/07 00:36:18;;;;;;;;;;;-0.70;99.90;;;;;;5017390;28;19929;-76
2021/01/07 00:38:45;;;;;;;;;;;-0.70;99.90;;;;;;5016875;28;20016;-76
2021/01/07 00:41:11;;;;;;;;;;;-0.70;99.90;;;;;;5016882;28;19976;-76
2021/01/07 00:43:38;;;;;;;;;;;-0.70;99.90;;;;;;5017200;28;19936;-76
2021/01/07 00:46:04;;;;;;;;;;;-0.70;99.90;;;;;;5016588;28;19925;-76
2021/01/07 00:48:31;;;;;;;;;;;-0.70;99.90;;;;;;5016028;28;19941;-76
2021/01/07 00:50:57;;;;;;;;;;;-0.70;99.90;;;;;;5016425;28;20342;-76
2021/01/07 00:53:24;;;;;;;;;;;-0.70;99.90;;;;;;5016331;28;20247;-76
2021/01/07 00:55:51;;;;;;;;;;;-0.80;99.90;;;;;;5016373;28;19977;-76
2021/01/07 00:58:17;;;;;;;;;;;-0.80;99.90;;;;;;5016412;28;19926;-76
2021/01/07 01:00:44;;;;;;;;;;;-0.80;99.90;;;;;;5016136;28;20338;-76
2021/01/07 01:03:10;;;;;;;;;;;-0.80;99.90;;;;;;5016372;28;19933;-76
2021/01/07 01:05:37;;;;;;;;;;;-0.80;99.90;;;;;;5016084;28;19925;-76
2021/01/07 01:08:04;;;;;;;;;;;-0.80;99.90;;;;;;5016205;28;19926;-76
2021/01/07 01:10:31;;;;;;;;;;;-0.80;99.90;;;;;;5016119;28;19925;-75
2021/01/07 01:12:58;;;;;;;;;;;-0.80;99.90;;;;;;5015938;28;20270;-76
2021/01/07 01:15:24;;;;;;;;;;;-0.80;99.90;;;;;;5015984;28;19926;-76
2021/01/07 01:17:51;;;;;;;;;;;-0.80;99.90;;;;;;5016098;28;19926;-76
2021/01/07 01:20:17;;;;;;;;;;;-0.80;99.90;;;;;;5016361;28;20365;-76
2021/01/07 01:22:44;;;;;;;;;;;-0.90;99.90;;;;;;5017449;28;20262;-76
2021/01/07 01:25:11;;;;;;;;;;;-0.90;99.90;;;;;;5015890;28;19936;-76
2021/01/07 01:27:38;;;;;;;;;;;-0.90;99.90;;;;;;5015961;28;19980;-76
2021/01/07 01:30:07;;;;;;;;;;;-0.90;99.90;;;;;;5016140;28;19925;-77
2021/01/07 01:32:35;;;;;;;;;;;-0.90;99.90;;;;;;5015872;28;20358;-76
2021/01/07 01:35:03;;;;;;;;;;;-0.90;99.90;;;;;;5016223;28;20372;-77
2021/01/07 01:37:31;;;;;;;;;;;-0.90;99.90;;;;;;5015176;28;19932;-76
2021/01/07 01:39:59;;;;;;;;;;;-0.90;99.90;;;;;;5015093;28;19926;-77
2021/01/07 01:42:27;;;;;;;;;;;-0.90;99.90;;;;;;5016492;28;20068;-72
2021/01/07 01:44:55;;;;;;;;;;;-0.90;99.90;;;;;;5014162;28;19925;-73
2021/01/07 01:47:23;;;;;;;;;;;-0.90;99.90;;;;;;5013896;28;19926;-73
2021/01/07 01:49:50;;;;;;;;;;;-1.00;99.90;;;;;;5013900;28;19925;-74
2021/01/07 01:52:18;;;;;;;;;;;-1.00;99.90;;;;;;5015430;28;19926;-73
2021/01/07 01:54:46;;;;;;;;;;;-1.00;99.90;;;;;;5015455;28;19925;-73
2021/01/07 01:57:14;;;;;;;;;;;-1.00;99.90;;;;;;5015349;28;20368;-73
2021/01/07 01:59:40;;;;;;;;;;;-1.00;99.90;;;;;;5015418;28;19933;-73
2021/01/07 02:02:07;;;;;;;;;;;-1.00;99.90;;;;;;5014878;28;19947;-73
2021/01/07 02:04:34;;;;;;;;;;;-1.00;99.90;;;;;;5015327;28;19925;-73
2021/01/07 02:07:00;;;;;;;;;;;-1.00;99.90;;;;;;5015015;28;19926;-73
2021/01/07 02:09:27;;;;;;;;;;;-1.00;99.90;;;;;;5015139;28;19936;-73
2021/01/07 02:11:53;;;;;;;;;;;-1.00;99.90;;;;;;5015110;28;19933;-72
2021/01/07 02:14:19;;;;;;;;;;;-1.00;99.90;;;;;;5015048;28;20385;-72
2021/01/07 02:16:46;;;;;;;;;;;-1.00;99.90;;;;;;5015278;28;19941;-72
2021/01/07 02:19:13;;;;;;;;;;;-1.00;99.90;;;;;;5015023;28;19932;-72
2021/01/07 02:21:40;;;;;;;;;;;-1.00;99.90;;;;;;5015415;28;19937;-72
2021/01/07 02:24:07;;;;;;;;;;;-1.00;99.90;;;;;;5014949;28;20305;-72
2021/01/07 02:26:34;;;;;;;;;;;-1.00;99.90;;;;;;5014084;28;19925;-72
2021/01/07 02:29:00;;;;;;;;;;;-1.00;99.90;;;;;;5014987;28;20032;-72
2021/01/07 02:31:26;;;;;;;;;;;-1.00;99.90;;;;;;5015024;28;19936;-72
2021/01/07 02:33:53;;;;;;;;;;;-1.00;99.90;;;;;;5010644;28;19952;-72
2021/01/07 02:36:19;;;;;;;;;;;-1.00;99.90;;;;;;4995545;28;20341;-72
2021/01/07 02:38:46;;;;;;;;;;;-1.00;99.90;;;;;;4995347;28;19941;-72
2021/01/07 02:41:13;;;;;;;;;;;-1.00;99.90;;;;;;4995181;28;19926;-72
2021/01/07 02:43:39;;;;;;;;;;;-1.00;99.90;;;;;;4997730;28;19929;-72
2021/01/07 02:46:05;;;;;;;;;;;-1.10;99.90;;;;;;4998968;28;19929;-72
2021/01/07 02:48:32;;;;;;;;;;;-1.10;99.90;;;;;;4999057;28;19945;-72
2021/01/07 02:50:58;;;;;;;;;;;-1.00;99.90;;;;;;4999146;28;20347;-72
2021/01/07 02:53:24;;;;;;;;;;;-1.00;99.90;;;;;;4998862;28;19932;-73
2021/01/07 02:55:52;;;;;;;;;;;-0.90;99.90;;;;;;5001839;28;19925;-76
2021/01/07 02:58:18;;;;;;;;;;;-0.90;99.90;;;;;;4999155;28;19926;-76
2021/01/07 03:00:44;;;;;;;;;;;-0.90;99.90;;;;;;5009301;28;20255;-76
2021/01/07 03:03:11;;;;;;;;;;;-0.90;99.90;;;;;;5018224;28;20354;-76
2021/01/07 03:05:37;;;;;;;;;;;-0.80;99.90;;;;;;5018197;28;19926;-76
2021/01/07 03:08:04;;;;;;;;;;;-0.80;99.90;;;;;;5018356;28;19937;-76
2021/01/07 03:10:30;;;;;;;;;;;-0.80;99.90;;;;;;5018056;28;19929;-76
2021/01/07 03:12:58;;;;;;;;;;;-0.70;99.90;;;;;;5018448;28;19986;-76
2021/01/07 03:15:24;;;;;;;;;;;-0.70;99.90;;;;;;5018596;28;19936;-76
2021/01/07 03:17:50;;;;;;;;;;;-0.70;99.90;;;;;;5018210;28;19926;-76
2021/01/07 03:20:17;;;;;;;;;;;-0.60;99.90;;;;;;5018220;28;19925;-76
2021/01/07 03:22:43;;;;;;;;;;;-0.60;99.90;;;;;;5018005;28;19926;-76
2021/01/07 03:25:10;;;;;;;;;;;-0.60;99.90;;;;;;5017794;28;20369;-76
2021/01/07 03:27:36;;;;;;;;;;;-0.60;99.90;;;;;;5018173;28;19932;-76
2021/01/07 03:30:04;;;;;;;;;;;-0.60;99.90;;;;;;5017769;28;20372;-76
2021/01/07 03:32:31;;;;;;;;;;;-0.50;99.90;;;;;;5017811;28;19984;-76
2021/01/07 03:34:57;;;;;;;;;;;-0.40;99.90;;;;;;5017689;28;20342;-76
2021/01/07 03:37:23;;;;;;;;;;;-0.50;99.90;;;;;;5017703;28;19936;-76
2021/01/07 03:39:50;;;;;;;;;;;-0.50;99.90;;;;;;5017737;28;20266;-76
2021/01/07 03:42:16;;;;;;;;;;;-0.50;99.90;;;;;;5017597;28;19937;-76
2021/01/07 03:44:42;;;;;;;;;;;-0.50;99.90;;;;;;5017640;28;19926;-76
2021/01/07 03:47:09;;;;;;;;;;;-0.40;99.90;;;;;;5017737;28;19925;-76
2021/01/07 03:49:36;;;;;;;;;;;-0.40;99.90;;;;;;5017308;28;19936;-76
2021/01/07 03:52:02;;;;;;;;;;;-0.40;99.90;;;;;;5017636;28;19932;-76
2021/01/07 03:54:29;;;;;;;;;;;-0.40;99.90;;;;;;5016583;28;19926;-76
2021/01/07 03:56:55;;;;;;;;;;;-0.40;99.90;;;;;;5017318;28;19925;-76
2021/01/07 03:59:21;;;;;;;;;;;-0.40;99.90;;;;;;5017198;28;19935;-76
2021/01/07 04:01:48;;;;;;;;;;;-0.40;99.90;;;;;;5017457;28;19944;-76
2021/01/07 04:04:15;;;;;;;;;;;-0.40;99.90;;;;;;5017150;28;20024;-76
2021/01/07 04:06:41;;;;;;;;;;;-0.30;99.90;;;;;;5017409;28;20369;-76
2021/01/07 04:09:08;;;;;;;;;;;-0.30;99.90;;;;;;5017408;28;19931;-76
2021/01/07 04:11:34;;;;;;;;;;;-0.40;99.90;;;;;;5017159;28;19932;-76
2021/01/07 04:14:00;;;;;;;;;;;-0.40;99.90;;;;;;5017233;28;19931;-76
2021/01/07 04:16:26;;;;;;;;;;;-0.30;99.90;;;;;;5017087;28;19925;-76
2021/01/07 04:18:53;;;;;;;;;;;-0.30;99.90;;;;;;5017121;28;19925;-75
2021/01/07 04:21:20;;;;;;;;;;;-0.30;99.90;;;;;;5017429;28;19957;-76
2021/01/07 04:23:47;;;;;;;;;;;-0.30;99.90;;;;;;5016973;28;19926;-76
2021/01/07 04:26:14;;;;;;;;;;;-0.30;99.90;;;;;;5017054;28;19926;-76
2021/01/07 04:28:40;;;;;;;;;;;-0.30;99.90;;;;;;5017258;28;19925;-76
2021/01/07 04:31:07;;;;;;;;;;;-0.30;99.90;;;;;;5017166;28;20304;-76
2021/01/07 04:33:33;;;;;;;;;;;-0.30;99.90;;;;;;5017332;28;20413;-77
2021/01/07 04:35:59;;;;;;;;;;;-0.40;99.90;;;;;;5016991;28;19933;-76
2021/01/07 04:38:27;;;;;;;;;;;-0.30;99.90;;;;;;5017216;28;19936;-77
2021/01/07 04:40:55;;;;;;;;;;;-0.20;99.90;;;;;;5017379;28;19926;-77
2021/01/07 04:43:21;;;;;;;;;;;2.20;99.90;;;;;;5017892;28;19951;-75
2021/01/07 04:45:48;;;;;;;;;;;-0.20;99.90;;;;;;5016666;28;19933;-75
2021/01/07 04:48:14;;;;;;;;;;;-0.10;99.90;;;;;;5016517;28;19925;-75
2021/01/07 04:50:40;;;;;;;;;;;-0.10;99.90;;;;;;5016279;28;19925;-74
2021/01/07 04:53:07;;;;;;;;;;;-0.10;99.90;;;;;;5016397;28;19926;-75
2021/01/07 04:55:34;;;;;;;;;;;-0.10;99.90;;;;;;5016329;28;19926;-74
2021/01/07 04:58:00;;;;;;;;;;;-0.10;99.90;;;;;;5016279;28;20429;-74
2021/01/07 05:00:27;;;;;;;;;;;-0.10;99.90;;;;;;5016137;28;20302;-74
2021/01/07 05:02:53;;;;;;;;;;;-0.10;99.90;;;;;;5016044;28;20350;-74
2021/01/07 05:05:19;;;;;;;;;;;-0.10;99.90;;;;;;5015922;28;19926;-75
2021/01/07 05:07:46;;;;;;;;;;;-0.10;99.90;;;;;;5016144;28;19925;-74
2021/01/07 05:10:12;;;;;;;;;;;-0.10;99.90;;;;;;5016115;28;19935;-74
2021/01/07 05:12:39;;;;;;;;;;;-0.10;99.90;;;;;;5015958;28;19936;-74
2021/01/07 05:15:06;;;;;;;;;;;-0.10;99.90;;;;;;5016277;28;19930;-74
2021/01/07 05:17:32;;;;;;;;;;;-0.10;99.90;;;;;;5015946;28;19943;-74
2021/01/07 05:20:00;;;;;;;;;;;-0.10;99.90;;;;;;5015849;28;20274;-74
2021/01/07 05:22:35;;;;;;;;;;;-0.10;99.90;;;;;;5016977;28;19926;-74
2021/01/07 05:25:02;;;;;;;;;;;-0.10;99.90;;;;;;5015953;28;19926;-73
2021/01/07 10:01:28;;;;;;;;;;;0.60;99.90;;;;;;5671441;23;19949;-78
2021/01/07 10:50:33;;;;;;;;;;;0.70;99.90;;;;;;5612928;23;19930;-77
2021/01/07 11:17:14;;;;;;;;;;;0.80;99.90;;;;;;5602405;23;19926;-77
2021/01/07 12:44:54;;;;;;;;;;;0.90;99.90;;;;;;6142801;23;19947;31
2021/01/07 12:53:36;;;;;;;;;;;1.00;99.90;;;;;;5581584;23;19946;-79
2021/01/07 12:58:40;;;;;;;;;;;1.00;99.90;;;;;;5588331;23;19928;-76
2021/01/07 13:01:09;;;;;;;;;;;1.00;99.90;;;;;;5032701;28;19910;-78
2021/01/07 14:48:51;;;;;;;;;;;1.00;99.90;;;;;;5480240;23;20254;-79
2021/01/07 14:51:28;;;;;;;;;;;0.20;99.90;;;;;;4975525;28;20358;-78
2021/01/07 16:08:13;;;;;;;;;;;1.00;99.90;;;;;;5029642;26;19925;-78
2021/01/07 16:10:40;;;;;;;;;;;1.30;99.90;;;;;;4957290;29;19996;-74
2021/01/07 16:13:07;;;;;;;;;;;1.00;99.90;;;;;;4960993;29;19926;-79
2021/01/07 16:15:33;;;;;;;;;;;1.00;99.90;;;;;;4970725;29;19926;-78
2021/01/07 18:09:41;;;;;;;;;;;1.20;99.90;;;;;;5636614;23;19926;31
2021/01/07 18:12:09;;;;;;;;;;;1.20;99.90;;;;;;4956680;29;20274;-78
2021/01/07 18:14:37;;;;;;;;;;;1.20;99.90;;;;;;4962369;28;19989;-78
2021/01/07 19:33:51;;;;;;;;;;;1.30;99.90;;;;;;5618229;23;19961;-77
2021/01/07 19:36:19;;;;;;;;;;;1.30;99.90;;;;;;5019320;28;20370;-77
2021/01/07 19:38:46;;;;;;;;;;;1.30;99.90;;;;;;5018937;28;19925;-77
2021/01/07 19:41:13;;;;;;;;;;;1.30;99.90;;;;;;5019260;28;19984;-77
2021/01/07 19:43:41;;;;;;;;;;;1.30;99.90;;;;;;5018987;28;19930;-77
2021/01/07 19:46:09;;;;;;;;;;;1.30;99.90;;;;;;5020103;28;19929;-77
2021/01/07 19:48:36;;;;;;;;;;;1.40;99.90;;;;;;5020252;28;19925;-77
2021/01/07 19:51:05;;;;;;;;;;;1.40;99.90;;;;;;5020054;28;20012;-77
2021/01/07 19:53:35;;;;;;;;;;;1.40;99.90;;;;;;5019075;28;19935;-77
2021/01/07 19:56:03;;;;;;;;;;;1.40;99.90;;;;;;5012219;28;19933;-77
2021/01/07 19:58:30;;;;;;;;;;;1.40;99.90;;;;;;5025536;28;19931;-76
2021/01/07 20:00:58;;;;;;;;;;;1.40;99.90;;;;;;5018180;28;19979;-76
2021/01/07 20:03:25;;;;;;;;;;;1.40;99.90;;;;;;5017535;28;20048;-76
2021/01/07 20:05:53;;;;;;;;;;;1.40;99.90;;;;;;5017402;28;20362;-76
2021/01/07 20:08:22;;;;;;;;;;;1.40;99.90;;;;;;5017295;28;19926;-77
2021/01/07 20:10:52;;;;;;;;;;;1.40;99.90;;;;;;5017385;28;20020;-76
2021/01/07 20:13:19;;;;;;;;;;;1.40;99.90;;;;;;5017183;28;19925;-76
2021/01/07 20:15:46;;;;;;;;;;;1.40;99.90;;;;;;5017495;28;19982;-76
2021/01/07 20:18:13;;;;;;;;;;;1.40;99.90;;;;;;5017223;28;19925;-76
2021/01/07 20:20:39;;;;;;;;;;;1.40;99.90;;;;;;5017312;28;19930;-76
2021/01/07 20:23:07;;;;;;;;;;;1.40;99.90;;;;;;5016838;28;19952;-76
2021/01/07 20:25:36;;;;;;;;;;;1.50;99.90;;;;;;5016737;28;19952;-76
2021/01/07 20:28:04;;;;;;;;;;;1.50;99.90;;;;;;5017022;28;19964;-77
2021/01/07 20:30:32;;;;;;;;;;;1.50;99.90;;;;;;5016633;28;19987;-76
2021/01/07 20:32:58;;;;;;;;;;;1.50;99.90;;;;;;5016943;28;19972;-76
2021/01/07 20:35:29;;;;;;;;;;;1.50;99.90;;;;;;5016963;28;19951;-76
2021/01/07 20:37:55;;;;;;;;;;;1.50;99.90;;;;;;5016461;28;19925;-76
2021/01/07 20:40:21;;;;;;;;;;;1.50;99.90;;;;;;5015614;28;19935;-76
2021/01/07 20:42:49;;;;;;;;;;;1.50;99.90;;;;;;5016518;28;19988;-76
2021/01/07 20:45:16;;;;;;;;;;;1.50;99.90;;;;;;5016879;28;19925;-76
2021/01/07 20:47:44;;;;;;;;;;;1.50;99.90;;;;;;5017004;28;19925;-76
2021/01/07 20:50:11;;;;;;;;;;;1.50;99.90;;;;;;5016171;28;20274;-76
2021/01/07 20:52:38;;;;;;;;;;;1.50;99.90;;;;;;5016171;28;19936;-76
2021/01/07 20:55:07;;;;;;;;;;;1.50;99.90;;;;;;5016183;28;20262;-76
2021/01/07 20:57:34;;;;;;;;;;;1.50;99.90;;;;;;5016570;28;19925;-76
2021/01/07 21:00:03;;;;;;;;;;;1.50;99.90;;;;;;5016273;28;20261;-76
2021/01/07 21:02:31;;;;;;;;;;;1.50;99.90;;;;;;5016437;28;19925;-75
2021/01/07 21:04:59;;;;;;;;;;;1.50;99.90;;;;;;5016280;28;19929;-75
2021/01/07 21:07:26;;;;;;;;;;;1.50;99.90;;;;;;5016231;28;19929;-76
2021/01/07 21:09:54;;;;;;;;;;;1.50;99.90;;;;;;5016248;28;19936;-76
2021/01/07 21:12:22;;;;;;;;;;;1.50;99.90;;;;;;5014475;28;19936;-76
2021/01/07 21:14:49;;;;;;;;;;;1.50;99.90;;;;;;5016110;28;19936;-76
2021/01/07 21:17:17;;;;;;;;;;;1.50;99.90;;;;;;5016216;28;19936;-76
2021/01/07 21:19:44;;;;;;;;;;;1.50;99.90;;;;;;5015978;28;19926;-76
2021/01/07 21:22:10;;;;;;;;;;;1.50;99.90;;;;;;5016132;28;19925;-76
2021/01/07 21:24:37;;;;;;;;;;;1.60;99.90;;;;;;5016026;28;19926;-76
2021/01/07 21:27:04;;;;;;;;;;;1.60;99.90;;;;;;5015658;28;20358;-76
2021/01/07 21:29:32;;;;;;;;;;;1.60;99.90;;;;;;5026604;28;19989;-77
2021/01/07 21:32:05;;;;;;;;;;;1.30;99.90;;;;;;5696292;23;19968;-79
2021/01/07 21:34:36;;;;;;;;;;;3.20;99.90;;;;;;5126644;23;19925;-79
2021/01/07 21:37:03;;;;;;;;;;;1.60;99.90;;;;;;5003272;28;19926;-77
2021/01/07 21:39:33;;;;;;;;;;;1.60;99.90;;;;;;5001226;28;19933;-80
2021/01/07 21:42:00;;;;;;;;;;;3.60;99.90;;;;;;5016933;28;19937;-80
2021/01/07 21:44:28;;;;;;;;;;;1.20;99.90;;;;;;5003438;28;19973;-79
2021/01/07 21:46:55;;;;;;;;;;;1.60;99.90;;;;;;4998495;28;19936;-75
2021/01/07 21:49:21;;;;;;;;;;;1.50;99.90;;;;;;4996649;28;19925;-76
2021/01/07 21:51:53;;;;;;;;;;;1.60;99.90;;;;;;4998645;28;19957;-77
2021/01/07 21:54:20;;;;;;;;;;;1.60;99.90;;;;;;4996121;28;19926;-77
2021/01/07 21:56:49;;;;;;;;;;;1.60;99.90;;;;;;4996160;28;19930;-76
2021/01/07 21:59:16;;;;;;;;;;;1.60;99.90;;;;;;4995152;28;19937;-77
2021/01/07 22:01:47;;;;;;;;;;;1.60;99.90;;;;;;4995153;28;19930;-77
2021/01/07 22:04:15;;;;;;;;;;;1.60;99.90;;;;;;4996178;28;19926;-77
2021/01/07 22:06:43;;;;;;;;;;;1.60;99.90;;;;;;4996318;28;19925;-78
2021/01/07 22:09:10;;;;;;;;;;;1.60;99.90;;;;;;4995023;28;19965;-78
2021/01/07 22:11:36;;;;;;;;;;;1.60;99.90;;;;;;4995356;28;19929;-76
2021/01/07 22:14:04;;;;;;;;;;;1.60;99.90;;;;;;4996026;28;19933;-76
2021/01/07 22:16:32;;;;;;;;;;;1.60;99.90;;;;;;4996221;28;19937;-76
2021/01/07 22:18:59;;;;;;;;;;;1.60;99.90;;;;;;4996230;28;19926;-76
2021/01/07 22:21:27;;;;;;;;;;;1.60;99.90;;;;;;4997766;28;20093;-76
2021/01/07 22:23:57;;;;;;;;;;;1.60;99.90;;;;;;5002095;28;20339;-77
2021/01/07 22:26:25;;;;;;;;;;;1.60;99.90;;;;;;5005179;28;19925;-77
2021/01/07 22:28:52;;;;;;;;;;;1.60;99.90;;;;;;5001847;28;20382;-77
2021/01/07 22:31:21;;;;;;;;;;;1.60;99.90;;;;;;4998630;28;19926;-77
2021/01/07 22:33:49;;;;;;;;;;;1.60;99.90;;;;;;5001071;28;19932;-77
2021/01/07 22:36:15;;;;;;;;;;;1.40;99.90;;;;;;5001644;28;20028;-77
2021/01/07 22:38:42;;;;;;;;;;;1.60;99.90;;;;;;5003636;28;20253;-77
2021/01/07 22:41:11;;;;;;;;;;;1.60;99.90;;;;;;5003193;28;20262;-78
2021/01/07 22:43:38;;;;;;;;;;;1.60;99.90;;;;;;5003018;28;19997;-77
2021/01/07 22:46:04;;;;;;;;;;;1.60;99.90;;;;;;5004013;28;19936;-78
2021/01/07 22:48:31;;;;;;;;;;;1.60;99.90;;;;;;5004403;28;20080;-77
2021/01/07 22:50:59;;;;;;;;;;;1.60;99.90;;;;;;5007245;28;20444;-77
2021/01/07 22:53:25;;;;;;;;;;;1.60;99.90;;;;;;5001415;28;19937;-77
2021/01/07 22:55:51;;;;;;;;;;;1.60;99.90;;;;;;5000718;28;19926;-76
2021/01/07 22:58:19;;;;;;;;;;;1.60;99.90;;;;;;5004769;28;19926;-77
2021/01/07 23:00:47;;;;;;;;;;;1.60;99.90;;;;;;5007353;28;20028;-77
2021/01/07 23:03:15;;;;;;;;;;;1.60;99.90;;;;;;5009391;28;19932;-78
2021/01/07 23:05:43;;;;;;;;;;;1.60;99.90;;;;;;5009820;28;19971;-78
2021/01/07 23:08:10;;;;;;;;;;;1.60;99.90;;;;;;5007965;28;19953;-77
2021/01/07 23:10:38;;;;;;;;;;;1.50;99.90;;;;;;5012222;28;19997;-78
2021/01/07 23:13:05;;;;;;;;;;;1.70;99.90;;;;;;5005032;28;19926;-77
2021/01/07 23:15:32;;;;;;;;;;;1.60;99.90;;;;;;5003811;28;20290;-77
2021/01/07 23:18:00;;;;;;;;;;;1.70;99.90;;;;;;5003218;28;19926;-77
2021/01/07 23:20:28;;;;;;;;;;;1.70;99.90;;;;;;5003854;28;19940;-77
2021/01/07 23:22:54;;;;;;;;;;;1.60;99.90;;;;;;5002923;28;19936;-77
2021/01/07 23:25:20;;;;;;;;;;;1.60;99.90;;;;;;5003194;28;19926;-77
2021/01/07 23:27:47;;;;;;;;;;;1.70;99.90;;;;;;5003181;28;19940;-77
2021/01/07 23:30:14;;;;;;;;;;;1.60;99.90;;;;;;5003526;28;19926;-77
2021/01/07 23:32:40;;;;;;;;;;;1.70;99.90;;;;;;5002794;28;19997;-77
2021/01/07 23:35:08;;;;;;;;;;;1.60;99.90;;;;;;5003205;28;20418;-77
2021/01/07 23:37:34;;;;;;;;;;;1.60;99.90;;;;;;5005706;28;19926;-77
2021/01/07 23:40:01;;;;;;;;;;;1.60;99.90;;;;;;5007491;28;20338;-77
2021/01/07 23:42:27;;;;;;;;;;;1.60;99.90;;;;;;5007333;28;19985;-77
2021/01/07 23:44:54;;;;;;;;;;;1.60;99.90;;;;;;5006188;28;19932;-77
2021/01/07 23:47:22;;;;;;;;;;;1.60;99.90;;;;;;5003909;28;20012;-77
2021/01/07 23:49:49;;;;;;;;;;;1.60;99.90;;;;;;5004427;28;20243;-77
2021/01/07 23:52:16;;;;;;;;;;;1.60;99.90;;;;;;5002984;28;20000;-77
2021/01/07 23:54:42;;;;;;;;;;;1.60;99.90;;;;;;5005506;28;19936;-78
2021/01/07 23:57:09;;;;;;;;;;;1.60;99.90;;;;;;5004742;28;20290;-78
2021/01/07 23:59:35;;;;;;;;;;;1.60;99.90;;;;;;5004920;28;19925;-78
